Pagrindinis puslapis
METAR-TAF:

METAR-TAF

Oro uostai :

Kangerlussuaq, Grenlandija

platuma: 67-01N, ilguma: 050-42W, Aukštis: 50 m

Dabartinis oras

Ataskaita buvo paskelbta 37 minutes, ne 22:50 UTC
Vėjas 9 kt iš Rytų/Šiaurės Rytų
Temperatūra -20°C
Drėgmė 77%
Slėgis 992 hPa
Matomumas 10 km arba daugiau

METAR: BGSF 212250Z AUTO 07009KT 9999NDV OVC025/// M20/M23 Q0992

Laikas: 20:27 (23:27 UTC)

Prognozė

Ataskaita buvo paskelbta 6 valandos ir 32 minutes, ne 16:55 UTC
Prognozė galioja nuo 21 metu 18 UTC su 22 metu 24 UTC
Vėjas 8 kt iš Rytų/Šiaurės Rytų
Matomumas 10 km arba daugiau
Su prošvaistėmis ne aukštis 2200 ft
Laikinai
nuo 21 metu 18 UTC su 21 metu 21 UTC
Su prošvaistėmis ne aukštis 2500 ft
Tapsmas
nuo 21 metu 21 UTC su 21 metu 24 UTC
Išsisklaidę debesys ne aukštis 2500 ft
Laikinai
nuo 22 metu 00 UTC su 22 metu 24 UTC
Su prošvaistėmis ne aukštis 2000 ft

TAF: BGSF 211655Z 2118/2224 07008KT 9999 BKN022 TEMPO 2118/2121 BKN025 BECMG 2121/2124 SCT025 TEMPO 2200/2224 BKN020

Orai ataskaitas ir orų prognozės (METAR, TAF).

turimą stotys yra geltonos ir raudonos taškus žemėlapyje.

Perkelti pele per norėdami pamatyti stoties vardą.

Tada spustelėkite, norėdami matyti oro stebėjimo ir prognozės.

Norėdami pakeisti žemėlapį: spustelėkite ant žalios mygtukų su juodo kryžiaus žemyn,; žalią mygtuką su brūkšneliu, jei norite nutolinti; arba žalių rodyklių gretimoms žemėlapius.


METAR-TAF: